M I D A S
Marine Information and Data Acquisition System
Tripno 1258 of the Zeeleeuw from 2007-02-16 07:38:04 to 2007-02-16 14:00:57
Back to CruiseResearch ActivitiesStationsMapUnderway DataData graphs

EquipmentUnitsComment
TimeDGPSUTC
LatitudeDGPSDM.mWGS84
LongitudeDGPSDM.mWGS84
HeadingGyrodeg 
SOGDGPSknotsSpeed over ground
COGDGPSdegCourse over ground
DepthEcho soundermeters200 kHz
Missing or incorrect values are displayed as -999
Navigation data collected by the RV Zeeleeuw from 2007-02-16 07:38:14 to 2007-02-16 14:07:54
Time Latitude Longitude Heading SOG COG Depth
2007-02-16 07:39:20 51°13.598 2°56.094 126.2 -999 64 6.1
2007-02-16 07:40:20 51°13.598 2°56.093 126.2 -999 70 6.1
2007-02-16 07:41:20 51°13.598 2°56.093 113.6 0.4 298 6.3
2007-02-16 07:42:23 51°13.61 2°56.042 112.5 2.7 291 -999
2007-02-16 07:43:23 51°13.63 2°55.969 119.7 3.2 297 -999
2007-02-16 07:44:23 51°13.656 2°55.891 118.5 3.5 295 -999
2007-02-16 07:45:22 51°13.676 2°55.811 108.1 2.9 288 8.9
2007-02-16 07:46:20 51°13.683 2°55.748 87.7 2 272 9.7
2007-02-16 07:47:20 51°13.691 2°55.738 46.4 2.4 28 11.7
2007-02-16 07:48:20 51°13.748 2°55.716 334.5 4.8 329 10.5
2007-02-16 07:49:20 51°13.839 2°55.632 338.6 7.2 335 10.2
2007-02-16 07:50:19 51°13.951 2°55.548 340.4 7.8 335 10.3
2007-02-16 07:51:21 51°14.074 2°55.461 341.4 7.9 337 -999
2007-02-16 07:52:23 51°14.193 2°55.356 330.4 7.9 324 -999
2007-02-16 07:53:23 51°14.289 2°55.212 317.2 7.9 312 -999
2007-02-16 07:54:21 51°14.38 2°55.033 311.9 11.5 306 10.1
2007-02-16 07:55:19 51°14.463 2°54.729 287.1 13.7 278 10.4
2007-02-16 07:56:19 51°14.424 2°54.376 247.5 13.8 241 9.1
2007-02-16 07:57:20 51°14.308 2°54.055 242.7 13.9 240 8.6
2007-02-16 07:58:20 51°14.191 2°53.734 243.4 14.1 240 8.6
2007-02-16 07:59:20 51°14.077 2°53.407 244.9 14.1 241 8.9
2007-02-16 08:00:20 51°13.962 2°53.076 244.5 14.3 241 9.3
2007-02-16 08:01:20 51°13.848 2°52.744 244.5 14.3 241 9.5
2007-02-16 08:02:20 51°13.732 2°52.412 244.6 14.3 241 9.8
2007-02-16 08:03:20 51°13.619 2°52.08 245.1 14.3 242 9.9
2007-02-16 08:04:20 51°13.507 2°51.747 245.9 14.2 242 10.1
2007-02-16 08:05:20 51°13.395 2°51.415 244.9 14.2 242 10.3
2007-02-16 08:06:20 51°13.283 2°51.083 245 14.2 242 10.5
2007-02-16 08:07:20 51°13.172 2°50.751 245.6 14.2 242 10.6
2007-02-16 08:08:20 51°13.061 2°50.418 245.1 14.2 242 10.9
2007-02-16 08:09:20 51°12.949 2°50.086 245.5 14.3 242 11
2007-02-16 08:10:20 51°12.839 2°49.752 245 14.2 242 11.2
2007-02-16 08:11:20 51°12.728 2°49.419 245.2 14.2 242 11.4
2007-02-16 08:12:20 51°12.617 2°49.086 245.3 14.2 242 11.6
2007-02-16 08:13:20 51°12.507 2°48.754 245.1 14.2 242 11.7
2007-02-16 08:14:20 51°12.396 2°48.424 244.7 14.1 241 11.8
2007-02-16 08:15:20 51°12.286 2°48.095 245.7 14 242 12.1
2007-02-16 08:16:20 51°12.18 2°47.766 247.9 14 245 12.1
2007-02-16 08:17:20 51°12.082 2°47.429 248.5 14 245 12.4
2007-02-16 08:18:20 51°11.985 2°47.094 248.3 13.9 245 12.4
2007-02-16 08:19:20 51°11.888 2°46.76 248 13.9 245 12.5
2007-02-16 08:20:20 51°11.791 2°46.427 248.2 13.9 245 12.6
2007-02-16 08:21:20 51°11.695 2°46.093 248.5 13.8 246 12.5
2007-02-16 08:22:20 51°11.599 2°45.761 247.7 13.9 245 12.5
2007-02-16 08:23:20 51°11.504 2°45.428 248.7 13.8 246 12.4
2007-02-16 08:24:20 51°11.409 2°45.095 248.5 13.8 246 12.3
2007-02-16 08:25:20 51°11.315 2°44.762 248.3 13.8 245 12.2
2007-02-16 08:26:20 51°11.221 2°44.43 248.7 13.7 246 12
2007-02-16 08:27:20 51°11.127 2°44.099 248.2 13.7 246 11.9
2007-02-16 08:28:20 51°11.033 2°43.769 248.2 13.7 245 11.8
2007-02-16 08:29:20 51°10.939 2°43.441 247.9 13.6 245 11.7
2007-02-16 08:30:20 51°10.845 2°43.112 248.1 13.6 245 11.6
2007-02-16 08:31:20 51°10.751 2°42.785 248.2 13.5 246 11.5
2007-02-16 08:32:20 51°10.657 2°42.458 248 13.5 245 11.5
2007-02-16 08:33:20 51°10.563 2°42.131 248.4 13.5 246 11.3
2007-02-16 08:34:20 51°10.47 2°41.807 248.3 13.4 245 11.3
2007-02-16 08:35:20 51°10.378 2°41.481 248.2 13.5 246 11.2
2007-02-16 08:36:20 51°10.284 2°41.158 248.1 13.4 246 11.2
2007-02-16 08:37:20 51°10.193 2°40.834 249.7 13.4 247 11.2
2007-02-16 08:38:20 51°10.107 2°40.506 250 13.4 248 11.2
2007-02-16 08:39:20 51°10.021 2°40.181 249.2 13.4 248 11.3
2007-02-16 08:40:20 51°9.934 2°39.855 248.9 13.3 248 11.2
2007-02-16 08:41:20 51°9.847 2°39.53 248.9 13.3 247 11.2
2007-02-16 08:42:20 51°9.76 2°39.207 248.9 13.3 246 11.4
2007-02-16 08:43:20 51°9.674 2°38.883 248.9 13.3 247 11.6
2007-02-16 08:44:20 51°9.587 2°38.562 248.7 13.2 246 11.7
2007-02-16 08:45:20 51°9.5 2°38.239 249.4 13.3 247 11.7
2007-02-16 08:46:20 51°9.414 2°37.916 249.5 13.3 247 11.8
2007-02-16 08:47:20 51°9.337 2°37.587 252.3 13.3 249 11.9
2007-02-16 08:48:20 51°9.262 2°37.258 252.3 13.3 250 12.2
2007-02-16 08:49:20 51°9.188 2°36.928 252.5 13.2 250 12.5
2007-02-16 08:50:20 51°9.112 2°36.599 252.3 13.2 250 12.8
2007-02-16 08:51:20 51°9.039 2°36.271 252.4 13.1 250 13.5
2007-02-16 08:52:20 51°8.973 2°35.979 252.2 8.6 254 14.3
2007-02-16 08:53:20 51°9.021 2°35.858 336.7 5 344 16.2
2007-02-16 08:54:20 51°9.096 2°35.892 41.3 4.9 39 17
2007-02-16 08:55:20 51°9.159 2°35.996 48.7 5.9 45 17.3
2007-02-16 08:56:20 51°9.237 2°36.105 42.9 6.3 40 17.2
2007-02-16 08:57:20 51°9.295 2°36.203 51.7 4.2 47 17.1
2007-02-16 08:58:20 51°9.326 2°36.25 68.4 0.9 26 17
2007-02-16 08:59:20 51°9.339 2°36.254 63.8 0.8 10 17
2007-02-16 09:00:20 51°9.352 2°36.258 54.2 0.8 12 17.2
2007-02-16 09:01:20 51°9.365 2°36.264 52.2 0.8 18 17.2
2007-02-16 09:02:20 51°9.379 2°36.27 54.4 0.9 19 17.3
2007-02-16 09:03:20 51°9.393 2°36.278 59.8 1 20 17.6
2007-02-16 09:04:20 51°9.429 2°36.312 20.7 4.3 17 17.2
2007-02-16 09:05:20 51°9.487 2°36.256 285.6 4.3 286 17.8
2007-02-16 09:06:20 51°9.447 2°36.182 201 4.5 193 17.9
2007-02-16 09:07:20 51°9.384 2°36.193 181.5 3.3 172 17.7
2007-02-16 09:08:20 51°9.337 2°36.193 191.6 2.5 181 17.4
2007-02-16 09:09:20 51°9.303 2°36.201 174.9 1.7 154 17.4
2007-02-16 09:10:20 51°9.299 2°36.217 176.2 0.6 60 17.5
2007-02-16 09:11:20 51°9.309 2°36.227 193.8 0.9 23 17.5
2007-02-16 09:12:20 51°9.325 2°36.239 220.1 1.2 25 17.3
2007-02-16 09:13:20 51°9.342 2°36.254 241.3 1.2 31 17.5
2007-02-16 09:14:20 51°9.359 2°36.269 257.4 1.2 26 17.7
2007-02-16 09:15:20 51°9.376 2°36.284 270.2 1.2 30 17.9
2007-02-16 09:16:20 51°9.38 2°36.265 233.8 1.7 230 18.1
2007-02-16 09:17:20 51°9.334 2°36.231 215.3 4 211 17.4
2007-02-16 09:18:20 51°9.272 2°36.192 197.6 3 190 17.7
2007-02-16 09:19:20 51°9.258 2°36.182 239 0.5 268 17.7
2007-02-16 09:20:20 51°9.263 2°36.171 241 0.5 326 17.8
2007-02-16 09:21:20 51°9.271 2°36.169 238.2 0.5 5 17.8
2007-02-16 09:22:20 51°9.282 2°36.175 237.7 1 30 17.8
2007-02-16 09:23:20 51°9.297 2°36.187 240.8 1.1 24 17.7
2007-02-16 09:24:20 51°9.315 2°36.203 246.1 1.3 29 17.6
2007-02-16 09:25:20 51°9.336 2°36.221 254 1.5 30 17.5
2007-02-16 09:26:20 51°9.357 2°36.241 261 1.5 33 18.2
2007-02-16 09:27:20 51°9.378 2°36.264 266.3 1.5 35 17.7
2007-02-16 09:28:20 51°9.4 2°36.288 271.3 1.6 35 18.3
2007-02-16 09:29:20 51°9.423 2°36.312 271 1.6 34 18.3
2007-02-16 09:30:20 51°9.445 2°36.336 267.9 1.7 34 18.4
2007-02-16 09:31:20 51°9.468 2°36.36 266.4 1.6 32 18.6
2007-02-16 09:32:20 51°9.49 2°36.384 265.2 1.7 33 18.3
2007-02-16 09:33:20 51°9.514 2°36.409 262.8 1.8 33 18.5
2007-02-16 09:34:20 51°9.538 2°36.435 263 1.8 34 18.6
2007-02-16 09:35:20 51°9.563 2°36.46 263.1 1.8 33 18.7
2007-02-16 09:36:20 51°9.587 2°36.485 264.3 1.7 32 18.5
2007-02-16 09:37:20 51°9.611 2°36.511 264.1 1.8 34 18.7
2007-02-16 09:38:20 51°9.637 2°36.537 263.1 1.9 32 18.5
2007-02-16 09:39:20 51°9.662 2°36.564 262.2 1.8 35 19
2007-02-16 09:40:20 51°9.683 2°36.576 251.9 1 311 19.2
2007-02-16 09:41:20 51°9.662 2°36.564 193.7 3.1 164 19.2
2007-02-16 09:42:20 51°9.588 2°36.643 157.2 6.8 141 18.3
2007-02-16 09:43:20 51°9.49 2°36.749 171.1 6.7 158 18.1
2007-02-16 09:44:20 51°9.398 2°36.838 156.3 6.8 142 17.8
2007-02-16 09:45:20 51°9.313 2°36.94 160.4 5.4 143 15.8
2007-02-16 09:46:20 51°9.256 2°37.007 172.3 3.3 144 14.7
2007-02-16 09:47:20 51°9.223 2°37.047 186 1.9 143 14.1
2007-02-16 09:48:20 51°9.193 2°37.062 201.2 2.3 177 13.6
2007-02-16 09:49:20 51°9.143 2°37.066 183.7 3.2 153 12.9
2007-02-16 09:50:20 51°9.133 2°37.099 199.7 1.1 62 12.8
2007-02-16 09:51:20 51°9.148 2°37.122 240.4 1.4 37 12.9
2007-02-16 09:52:20 51°9.166 2°37.145 257.6 1.5 40 13.2
2007-02-16 09:53:20 51°9.187 2°37.174 264 1.7 43 13.2
2007-02-16 09:54:20 51°9.209 2°37.206 268 1.9 45 13.4
2007-02-16 09:55:20 51°9.232 2°37.243 271.8 2 45 13.6
2007-02-16 09:56:20 51°9.256 2°37.278 272.2 1.9 43 13.8
2007-02-16 09:57:20 51°9.279 2°37.312 267.8 1.9 42 14
2007-02-16 09:58:20 51°9.302 2°37.345 262 1.8 41 14.1
2007-02-16 09:59:20 51°9.325 2°37.377 257.6 1.8 41 14.3
2007-02-16 10:00:20 51°9.347 2°37.409 254.7 1.8 41 14.5
2007-02-16 10:01:20 51°9.369 2°37.44 255.2 1.8 44 14.5
2007-02-16 10:02:20 51°9.39 2°37.473 255.3 1.8 44 14.6
2007-02-16 10:03:20 51°9.412 2°37.505 255.6 1.8 40 14.8
2007-02-16 10:04:20 51°9.435 2°37.536 257.9 1.8 41 14.9
2007-02-16 10:05:20 51°9.458 2°37.566 258.3 1.9 37 15.1
2007-02-16 10:06:20 51°9.482 2°37.597 258.9 1.9 40 15.2
2007-02-16 10:07:20 51°9.506 2°37.627 256.6 1.8 39 15.5
2007-02-16 10:08:20 51°9.53 2°37.656 255.4 1.7 39 15.7
2007-02-16 10:09:20 51°9.552 2°37.685 255.1 1.8 34 15.9
2007-02-16 10:10:20 51°9.576 2°37.71 256.2 1.7 34 16.2
2007-02-16 10:11:20 51°9.598 2°37.735 255.2 1.7 33 16.4
2007-02-16 10:12:20 51°9.622 2°37.759 255.1 1.7 32 16.6
2007-02-16 10:13:20 51°9.647 2°37.783 257.6 1.7 32 16.9
2007-02-16 10:14:20 51°9.672 2°37.807 253.3 1.7 32 17
2007-02-16 10:15:20 51°9.697 2°37.832 250.8 1.8 31 17.3
2007-02-16 10:16:20 51°9.722 2°37.857 249.2 1.8 31 17.5
2007-02-16 10:17:20 51°9.747 2°37.882 249.6 1.8 33 17.7
2007-02-16 10:18:20 51°9.772 2°37.909 250.5 1.9 35 17.9
2007-02-16 10:19:20 51°9.798 2°37.935 249.6 1.8 33 18.1
2007-02-16 10:20:20 51°9.823 2°37.962 248.6 1.8 35 18.3
2007-02-16 10:21:20 51°9.848 2°37.988 250.1 1.8 34 18.5
2007-02-16 10:22:20 51°9.873 2°38.015 249.9 1.9 34 18.4
2007-02-16 10:23:20 51°9.9 2°38.042 252.9 1.9 32 18.8
2007-02-16 10:24:20 51°9.928 2°38.069 254.7 2 31 19.1
2007-02-16 10:25:20 51°9.957 2°38.097 254.7 2 31 19.1
2007-02-16 10:26:20 51°9.985 2°38.126 256.2 2.1 32 19.4
2007-02-16 10:27:20 51°10.014 2°38.155 253.8 2.1 32 19.3
2007-02-16 10:28:20 51°10.042 2°38.185 252.5 2 33 19.3
2007-02-16 10:29:20 51°10.07 2°38.215 251.8 2 34 19.3
2007-02-16 10:30:20 51°10.098 2°38.244 250.3 2 33 19.4
2007-02-16 10:31:20 51°10.126 2°38.272 247.7 2 32 19
2007-02-16 10:32:20 51°10.153 2°38.299 245.7 2 30 18.6
2007-02-16 10:33:20 51°10.181 2°38.327 246 2 32 18.7
2007-02-16 10:34:20 51°10.208 2°38.353 245.7 1.9 33 18.6
2007-02-16 10:35:20 51°10.234 2°38.38 242.8 1.9 32 18.6
2007-02-16 10:36:20 51°10.26 2°38.406 241.7 1.8 33 18.7
2007-02-16 10:37:20 51°10.286 2°38.431 240.3 1.8 33 18.9
2007-02-16 10:38:20 51°10.312 2°38.456 239.6 1.8 30 18.9
2007-02-16 10:39:20 51°10.337 2°38.482 241.5 1.9 32 19
2007-02-16 10:40:20 51°10.365 2°38.508 243.8 2 30 19.1
2007-02-16 10:41:20 51°10.391 2°38.534 242.1 1.9 31 19.2
2007-02-16 10:42:20 51°10.418 2°38.559 241.2 1.9 29 19.7
2007-02-16 10:43:20 51°10.444 2°38.584 242.4 1.8 31 19.3
2007-02-16 10:44:20 51°10.47 2°38.609 240.8 1.8 30 19.4
2007-02-16 10:45:20 51°10.496 2°38.634 242 1.8 33 19.6
2007-02-16 10:46:20 51°10.524 2°38.66 243.9 1.9 30 19.9
2007-02-16 10:47:20 51°10.551 2°38.685 245.3 1.9 33 20.1
2007-02-16 10:48:20 51°10.579 2°38.712 245.2 2 32 20.2
2007-02-16 10:49:19 51°10.607 2°38.74 246.3 2 33 20.4
2007-02-16 10:50:19 51°10.634 2°38.768 245.6 2 35 20.4
2007-02-16 10:51:19 51°10.661 2°38.798 245.3 1.9 33 20.5
2007-02-16 10:52:19 51°10.668 2°38.802 217.5 1.3 192 20.6
2007-02-16 10:53:19 51°10.626 2°38.823 181.9 4 159 20.1
2007-02-16 10:54:19 51°10.485 2°38.861 183.1 11.1 173 18.7
2007-02-16 10:55:19 51°10.289 2°38.892 183 12.4 174 18.3
2007-02-16 10:56:19 51°10.078 2°38.92 183.4 12.8 175 17.3
2007-02-16 10:57:19 51°9.866 2°38.949 183.6 12.9 174 14.9
2007-02-16 10:58:19 51°9.684 2°38.978 184.5 8.3 172 13.7
2007-02-16 10:59:19 51°9.568 2°39.008 184.4 6.4 170 13.2
2007-02-16 11:00:19 51°9.477 2°39.038 184.2 4.5 167 12.7
2007-02-16 11:01:19 51°9.418 2°39.065 183.6 3.1 162 12.4
2007-02-16 11:02:19 51°9.376 2°39.081 189.2 2.3 165 12.2
2007-02-16 11:03:20 51°9.342 2°39.11 180.1 2.2 150 12
2007-02-16 11:04:20 51°9.316 2°39.135 186.5 1.3 147 11.8
2007-02-16 11:05:20 51°9.304 2°39.151 194.5 0.6 122 11.7
2007-02-16 11:06:20 51°9.305 2°39.164 202.1 0.5 55 11.8
2007-02-16 11:07:20 51°9.313 2°39.176 212.6 0.8 33 11.7
2007-02-16 11:08:20 51°9.327 2°39.189 227.1 1 33 11.8
2007-02-16 11:09:20 51°9.342 2°39.205 240.3 1.2 30 11.9
2007-02-16 11:10:20 51°9.361 2°39.223 254.2 1.3 31 11.9
2007-02-16 11:11:20 51°9.38 2°39.243 260.4 1.4 37 12.1
2007-02-16 11:12:20 51°9.399 2°39.266 262.9 1.4 38 12.1
2007-02-16 11:13:20 51°9.419 2°39.29 265.6 1.5 37 12.2
2007-02-16 11:14:20 51°9.439 2°39.316 266.7 1.6 39 12.2
2007-02-16 11:15:20 51°9.46 2°39.343 267 1.6 39 12.3
2007-02-16 11:16:20 51°9.48 2°39.37 267.3 1.5 39 12.4
2007-02-16 11:17:20 51°9.496 2°39.369 269.7 1.6 298 12.4
2007-02-16 11:18:20 51°9.506 2°39.334 265 1.2 300 12.5
2007-02-16 11:19:20 51°9.515 2°39.294 264.8 2.4 281 12.6
2007-02-16 11:20:20 51°9.521 2°39.198 264.8 4.1 270 12.7
2007-02-16 11:21:20 51°9.513 2°39.087 256 4.3 258 12.9
2007-02-16 11:22:20 51°9.494 2°38.974 254.9 4.3 259 12.9
2007-02-16 11:23:20 51°9.483 2°38.894 250.7 2.5 257 13
2007-02-16 11:24:20 51°9.48 2°38.821 262.6 3 273 13.1
2007-02-16 11:25:20 51°9.484 2°38.741 262.4 3 272 13.3
2007-02-16 11:26:20 51°9.485 2°38.661 259.5 2.9 269 13.4
2007-02-16 11:27:20 51°9.483 2°38.584 257.5 2.9 266 13.6
2007-02-16 11:28:20 51°9.477 2°38.508 253.9 2.9 261 13.6
2007-02-16 11:29:20 51°9.469 2°38.433 253.5 2.8 261 13.7
2007-02-16 11:30:20 51°9.464 2°38.359 254.3 2.8 264 13.7
2007-02-16 11:31:20 51°9.458 2°38.287 252.7 2.8 263 13.8
2007-02-16 11:32:20 51°9.451 2°38.215 252.6 2.8 261 13.9
2007-02-16 11:33:20 51°9.443 2°38.142 252.3 2.9 261 13.8
2007-02-16 11:34:20 51°9.436 2°38.069 253.5 2.8 263 13.9
2007-02-16 11:35:20 51°9.432 2°37.996 253.4 2.7 262 13.9
2007-02-16 11:36:20 51°9.425 2°37.925 252.4 2.7 260 14.1
2007-02-16 11:37:20 51°9.417 2°37.853 253.4 2.8 263 14.2
2007-02-16 11:38:20 51°9.412 2°37.781 253.1 2.7 265 14.4
2007-02-16 11:39:20 51°9.406 2°37.713 249.5 2.5 261 14.5
2007-02-16 11:40:20 51°9.399 2°37.647 247.7 2.6 258 14.6
2007-02-16 11:41:20 51°9.389 2°37.581 247 2.6 256 14.7
2007-02-16 11:42:20 51°9.38 2°37.513 247.5 2.6 257 14.8
2007-02-16 11:43:20 51°9.369 2°37.446 248.3 2.6 256 14.9
2007-02-16 11:44:20 51°9.36 2°37.377 249.4 2.7 260 15.1
2007-02-16 11:45:20 51°9.357 2°37.305 258.5 2.8 270 15.3
2007-02-16 11:46:20 51°9.362 2°37.233 266.2 2.6 283 15.7
2007-02-16 11:47:20 51°9.377 2°37.17 275.8 2.6 300 16.2
2007-02-16 11:48:20 51°9.414 2°37.12 309.6 3.4 335 17
2007-02-16 11:49:20 51°9.477 2°37.108 348.8 4.4 5 18.2
2007-02-16 11:50:20 51°9.544 2°37.143 19.5 4 28 18.5
2007-02-16 11:51:20 51°9.595 2°37.199 41.2 3.5 40 19
2007-02-16 11:52:20 51°9.633 2°37.258 58.7 3 46 19.1
2007-02-16 11:53:20 51°9.664 2°37.313 68 3.2 52 19.1
2007-02-16 11:54:20 51°9.687 2°37.473 96.5 9.8 85 18.6
2007-02-16 11:55:20 51°9.691 2°37.795 101.5 13.1 93 17.5
2007-02-16 11:56:20 51°9.672 2°38.147 104.6 13.6 96 15.6
2007-02-16 11:57:20 51°9.646 2°38.505 104.5 13.5 96 14.2
2007-02-16 11:58:20 51°9.62 2°38.857 104.8 13.4 97 13.6
2007-02-16 11:59:20 51°9.594 2°39.207 103.3 13.4 96 12.8
2007-02-16 12:00:20 51°9.571 2°39.558 102.2 13.3 96 12.2
2007-02-16 12:01:20 51°9.551 2°39.921 101.6 14.1 95 11.5
2007-02-16 12:02:20 51°9.528 2°40.294 102.8 14.2 96 11
2007-02-16 12:03:20 51°9.515 2°40.669 98.7 14.2 93 10.8
2007-02-16 12:04:20 51°9.502 2°41.044 98.9 14.2 94 10.5
2007-02-16 12:05:20 51°9.49 2°41.417 98.8 14.1 93 10.4
2007-02-16 12:06:20 51°9.477 2°41.79 98.8 14.1 94 10.4
2007-02-16 12:07:20 51°9.469 2°42.162 96.3 13.3 91 10.3
2007-02-16 12:08:20 51°9.457 2°42.388 110.2 4.9 100 10.6
2007-02-16 12:09:20 51°9.456 2°42.433 152.6 1.1 8 -999
2007-02-16 12:10:23 51°9.461 2°42.446 184.1 0.4 97 5
2007-02-16 12:11:21 51°9.466 2°42.452 213 0.4 21 10.6
2007-02-16 12:12:20 51°9.475 2°42.456 235.1 0.7 11 10.7
2007-02-16 12:13:23 51°9.484 2°42.427 273.6 3.8 288 10.7
2007-02-16 12:14:20 51°9.531 2°42.24 294.8 11.3 295 10.6
2007-02-16 12:15:20 51°9.608 2°41.932 289.1 12.8 289 10.7
2007-02-16 12:16:20 51°9.676 2°41.606 290 13.1 289 10.9
2007-02-16 12:17:20 51°9.712 2°41.357 273.6 6.7 277 11.2
2007-02-16 12:18:20 51°9.719 2°41.235 262.8 3.3 270 11.1
2007-02-16 12:19:20 51°9.717 2°41.16 258 3.2 266 11.1
2007-02-16 12:20:20 51°9.737 2°41.052 292.1 5 298 11.2
2007-02-16 12:21:20 51°9.775 2°40.93 288.1 5.2 293 11.4
2007-02-16 12:22:20 51°9.807 2°40.805 290.5 4.5 297 11.6
2007-02-16 12:23:20 51°9.834 2°40.719 279.9 2.9 291 11.8
2007-02-16 12:24:20 51°9.844 2°40.656 264.9 2.2 278 11.9
2007-02-16 12:25:20 51°9.845 2°40.602 253.3 1.9 265 12
2007-02-16 12:26:20 51°9.837 2°40.551 245.2 2.5 249 12
2007-02-16 12:27:20 51°9.833 2°40.474 262.6 3.3 270 12.1
2007-02-16 12:28:20 51°9.831 2°40.383 264.2 3.5 268 12.2
2007-02-16 12:29:20 51°9.817 2°40.299 243.8 3.3 247 12.3
2007-02-16 12:30:20 51°9.795 2°40.215 245 3.5 248 12.3
2007-02-16 12:31:20 51°9.774 2°40.13 246 3.5 249 12.3
2007-02-16 12:32:20 51°9.753 2°40.043 246.2 3.5 250 12.3
2007-02-16 12:33:20 51°9.734 2°39.956 247.3 3.5 251 12.4
2007-02-16 12:34:20 51°9.715 2°39.87 246.9 3.5 249 12.3
2007-02-16 12:35:20 51°9.695 2°39.783 247.2 3.5 250 12.4
2007-02-16 12:36:20 51°9.676 2°39.696 246.7 3.5 250 12.4
2007-02-16 12:37:20 51°9.656 2°39.608 247.3 3.5 251 12.5
2007-02-16 12:38:20 51°9.636 2°39.519 246.5 3.6 250 12.5
2007-02-16 12:39:20 51°9.615 2°39.43 246.7 3.6 249 12.5
2007-02-16 12:40:20 51°9.594 2°39.34 246.6 3.7 250 12.5
2007-02-16 12:41:20 51°9.573 2°39.249 248 3.6 251 12.5
2007-02-16 12:42:20 51°9.555 2°39.159 247.5 3.5 252 12.6
2007-02-16 12:43:20 51°9.536 2°39.069 246.5 3.6 251 12.6
2007-02-16 12:44:20 51°9.519 2°38.976 253.9 3.7 260 12.7
2007-02-16 12:45:20 51°9.517 2°38.876 268.5 3.9 277 12.9
2007-02-16 12:46:20 51°9.537 2°38.775 284.4 4.1 294 13.2
2007-02-16 12:47:20 51°9.574 2°38.686 298.8 3.8 311 13.5
2007-02-16 12:48:20 51°9.627 2°38.633 333.3 4 345 13.6
2007-02-16 12:49:20 51°9.696 2°38.643 15.9 4.3 21 14.1
2007-02-16 12:50:20 51°9.752 2°38.702 52.6 4 49 14.4
2007-02-16 12:51:20 51°9.774 2°38.799 104.7 4.1 90 14.3
2007-02-16 12:52:20 51°9.751 2°38.879 157.3 1.8 125 13.9
2007-02-16 12:53:20 51°9.749 2°38.903 188.8 0.6 53 13.8
2007-02-16 12:54:20 51°9.762 2°38.914 225 1 12 13.9
2007-02-16 12:55:20 51°9.769 2°38.896 245.3 1.8 262 14
2007-02-16 12:56:20 51°9.766 2°38.861 239.1 1 263 14
2007-02-16 12:57:20 51°9.767 2°38.841 236.3 0.6 286 14.1
2007-02-16 12:58:20 51°9.771 2°38.83 233 0.5 321 14.1
2007-02-16 12:59:20 51°9.779 2°38.825 231 0.5 332 14.2
2007-02-16 13:00:20 51°9.777 2°38.809 222.8 1.4 225 14.2
2007-02-16 13:01:20 51°9.733 2°38.838 139.8 4.7 120 13.7
2007-02-16 13:02:20 51°9.772 2°39.003 62.3 10.6 58 13.6
2007-02-16 13:03:20 51°9.868 2°39.308 71.2 13 66 13.6
2007-02-16 13:04:20 51°9.957 2°39.616 69.2 12.8 64 13.5
2007-02-16 13:05:20 51°10.053 2°39.919 67.8 12.8 63 13.6
2007-02-16 13:06:20 51°10.149 2°40.222 67.9 12.8 63 13.8
2007-02-16 13:07:20 51°10.245 2°40.526 68.7 12.9 63 13.8
2007-02-16 13:08:20 51°10.342 2°40.829 68.2 12.8 63 14
2007-02-16 13:09:20 51°10.44 2°41.132 68.2 12.8 63 14
2007-02-16 13:10:20 51°10.537 2°41.436 68.7 12.9 64 14.1
2007-02-16 13:11:20 51°10.632 2°41.742 68.5 12.9 64 14.2
2007-02-16 13:12:20 51°10.728 2°42.048 68.4 12.8 64 14.3
2007-02-16 13:13:20 51°10.822 2°42.351 68.2 12.8 64 14.4
2007-02-16 13:14:20 51°10.917 2°42.655 68.1 12.9 64 14.5
2007-02-16 13:15:20 51°11.004 2°42.965 73.2 12.8 69 14.6
2007-02-16 13:16:20 51°11.084 2°43.277 72 12.8 67 14.6
2007-02-16 13:17:20 51°11.165 2°43.589 72.4 12.8 67 14.6
2007-02-16 13:18:20 51°11.247 2°43.903 71.8 12.9 67 14.7
2007-02-16 13:19:20 51°11.331 2°44.219 72.2 12.9 67 14.8
2007-02-16 13:20:20 51°11.413 2°44.534 72.2 12.9 67 14.8
2007-02-16 13:21:20 51°11.496 2°44.849 72.1 12.9 67 14.9
2007-02-16 13:22:20 51°11.579 2°45.162 72.1 12.8 67 14.9
2007-02-16 13:23:20 51°11.663 2°45.475 71.5 12.9 66 15
2007-02-16 13:24:20 51°11.748 2°45.789 72.2 12.9 67 15
2007-02-16 13:25:20 51°11.834 2°46.103 72.3 12.9 67 15
2007-02-16 13:26:20 51°11.918 2°46.417 72.8 12.9 66 15
2007-02-16 13:27:20 51°12.003 2°46.728 72.6 12.8 67 14.9
2007-02-16 13:28:20 51°12.087 2°47.039 72.6 12.8 67 14.8
2007-02-16 13:29:20 51°12.173 2°47.35 72.1 12.8 65 14.7
2007-02-16 13:30:20 51°12.263 2°47.653 70.8 12.3 64 14.7
2007-02-16 13:31:20 51°12.352 2°47.944 70.4 12.1 64 14.5
2007-02-16 13:32:20 51°12.439 2°48.235 70.2 12.1 65 14.4
2007-02-16 13:33:20 51°12.527 2°48.526 70 12.2 65 14.3
2007-02-16 13:34:20 51°12.618 2°48.814 66.8 12.2 61 14.1
2007-02-16 13:35:20 51°12.717 2°49.096 65.7 12.2 61 14
2007-02-16 13:36:20 51°12.816 2°49.378 66.1 12.2 62 13.9
2007-02-16 13:37:20 51°12.918 2°49.657 63.8 12.3 58 13.8
2007-02-16 13:38:20 51°13.024 2°49.934 64.3 12.2 58 13.6
2007-02-16 13:39:20 51°13.129 2°50.211 64.5 12.2 59 13.5
2007-02-16 13:40:20 51°13.233 2°50.487 64 12 60 13.3
2007-02-16 13:41:20 51°13.337 2°50.756 62.7 11.9 57 13.3
2007-02-16 13:42:20 51°13.444 2°51.02 62.2 11.9 57 13.1
2007-02-16 13:43:20 51°13.554 2°51.282 59.9 11.9 55 13
2007-02-16 13:44:20 51°13.668 2°51.541 59.6 11.9 56 12.7
2007-02-16 13:45:20 51°13.781 2°51.8 59.6 11.9 54 12.6
2007-02-16 13:46:20 51°13.894 2°52.058 60.1 11.8 55 12.2
2007-02-16 13:47:20 51°14.005 2°52.314 60.5 11.7 55 11.9
2007-02-16 13:48:20 51°14.115 2°52.571 61.6 11.7 56 11.3
2007-02-16 13:49:20 51°14.22 2°52.832 63.5 11.6 58 11.2
2007-02-16 13:50:20 51°14.325 2°53.092 62.6 11.7 58 11.5
2007-02-16 13:51:20 51°14.406 2°53.367 79.8 11.4 73 11.6
2007-02-16 13:52:20 51°14.44 2°53.664 90.2 11.3 84 11.8
2007-02-16 13:53:20 51°14.446 2°53.962 96.9 11.2 90 11.6
2007-02-16 13:54:20 51°14.441 2°54.255 99 11 94 11.3
2007-02-16 13:55:20 51°14.433 2°54.546 99.4 11 94 13.3
2007-02-16 13:56:20 51°14.409 2°54.835 106.7 10.9 101 12.5
2007-02-16 13:57:20 51°14.347 2°55.093 122 10.3 120 13
2007-02-16 13:58:20 51°14.243 2°55.302 138 10 136 12.9
2007-02-16 13:59:20 51°14.109 2°55.435 160 9.1 156 12.6
2007-02-16 14:00:20 51°13.971 2°55.533 158.4 9.2 156 12.4
2007-02-16 14:01:20 51°13.869 2°55.611 157.7 5.5 155 12.4
2007-02-16 14:02:20 51°13.794 2°55.676 154.5 5.7 150 11.6
2007-02-16 14:03:21 51°13.71 2°55.782 139.2 6.7 135 13.8
2007-02-16 14:04:24 51°13.65 2°55.91 124.5 5 121 -999
2007-02-16 14:05:24 51°13.615 2°56.009 119.7 3.7 118 -999
2007-02-16 14:06:23 51°13.601 2°56.081 115.2 1.7 103 -999
2007-02-16 14:07:24 51°13.598 2°56.092 128.2 0.3 142 -999